Aérodrome :
LOGIN :

S'inscrire | Disclaimer

   EN    FR    IT 

 










Légende :    VFR   VFR Marginal   IFR   IFR Intensif   IFR Très Intensif
Visi : 
Plafond : 
>= 8 km
>= 3000ft
5 à 8 km
1000 à 3000 ft
1500m à 5 km
500 à 1000 ft
800 à 1500m
200 à 500 ft
< 800m
< 200 ft
Symboles :   Orages  Brouillard  Fortes neiges  Fortes précipitations  Vent > 20 kt
SIGMETs :   Divers  Orages  Givrage  Turbulence  Onde Orograph.  Cendres Volcan.







- Altitude de l'aérodrome : 117 ft
- Code IATA : NWI
- Voir les cartes d'approche


EGSH - Norwich

DERNIER METAR :
  • 170250Z AUTO 19010KT 0350 FG OVC001/// 07/07 Q1018

METARs EXPIRÉS :
  • 170220Z AUTO 19009KT 0450 FG OVC001/// 07/07 Q1019
  • 170150Z AUTO 19009KT 1200 BR BKN001/// 07/07 Q1019
  • 170120Z AUTO 18008KT 3800 BR NCD 07/07 Q1019
  • 170050Z AUTO 19007KT 4500 HZ NCD 08/07 Q1020
  • 170020Z AUTO 18007KT 9000 NCD 08/07 Q1020

TAF AMD TAF EGSH
Valide du 17 à 03h jusqu'au 17 à 12h UTC


170225Z 1703/1712 18007KT 0300 FG BKN001
BECMG 1703/1706 8000 NSW SCT040
BECMG 1706/1709 9999
ATIS : +44 1603 420 640
Pas de NOTAMs connus pour ce terrain.



MET'MAP, la Météo Aéronautique d'un coup d'oeil ! - Copyright ORBIFLY Décembre 2007 - Disclaimer

ORBIFLY MET'MAP TEAM :

Programmation & Développement : Alexandra Zaïnal
Conception & Développement : Baudouin d'Aumeries
Co-Programmation & Développement : Marc-Olivier Méhu
Soutien technique & logistique : Manuel Goepfert

Contact : metmap@orbifly.com




SOURCES & CREDITS :

   NOAA